createdAt,value
2018-08-18T00:00:57.492Z,20.40
2018-08-18T00:03:40.416Z,20.40
2018-08-18T00:06:14.320Z,20.40
2018-08-18T00:09:01.029Z,20.50
2018-08-18T00:11:37.747Z,20.50
2018-08-18T00:14:13.660Z,20.40
2018-08-18T00:20:57.981Z,20.50
2018-08-18T00:29:03.752Z,20.30
2018-08-18T00:31:45.462Z,20.20
2018-08-18T00:34:23.750Z,20.20
2018-08-18T00:40:31.037Z,20.20
2018-08-18T00:43:39.922Z,20.20
2018-08-18T00:49:08.256Z,20.20
2018-08-18T00:51:55.048Z,20.30
2018-08-18T00:57:30.257Z,20.30
2018-08-18T01:00:16.335Z,20.30
2018-08-18T01:02:53.294Z,20.30
2018-08-18T01:05:30.001Z,20.30
2018-08-18T01:10:51.044Z,20.30
2018-08-18T01:13:36.297Z,20.30
2018-08-18T01:16:26.772Z,20.40
2018-08-18T01:19:08.134Z,20.50
2018-08-18T01:21:54.004Z,20.50
2018-08-18T01:24:58.755Z,20.50
2018-08-18T01:27:39.317Z,20.50
2018-08-18T01:30:20.765Z,20.50
2018-08-18T01:32:53.560Z,20.50
2018-08-18T01:35:33.564Z,20.50
2018-08-18T01:38:12.638Z,20.50
2018-08-18T01:40:56.538Z,20.50
2018-08-18T01:43:40.506Z,20.50
2018-08-18T01:46:14.050Z,20.40
2018-08-18T01:48:53.724Z,20.40
2018-08-18T01:51:33.671Z,20.50
2018-08-18T01:54:16.190Z,20.50
2018-08-18T01:56:56.313Z,20.50
2018-08-18T01:59:42.207Z,20.50
2018-08-18T02:02:29.047Z,20.40
2018-08-18T02:05:18.934Z,20.40
2018-08-18T02:22:30.956Z,20.30
2018-08-18T02:25:18.850Z,20.30
2018-08-18T02:27:57.781Z,20.30
2018-08-18T02:36:32.547Z,20.30
2018-08-18T02:39:12.883Z,20.20
2018-08-18T02:53:28.033Z,20.30
2018-08-18T02:56:06.578Z,20.20
2018-08-18T02:58:59.638Z,20.10
2018-08-18T03:02:06.521Z,19.90
2018-08-18T03:07:45.096Z,20.00
2018-08-18T03:10:24.592Z,20.00
2018-08-18T03:13:04.482Z,20.00
2018-08-18T03:16:43.800Z,20.00
2018-08-18T03:19:32.090Z,20.00
2018-08-18T03:28:28.276Z,20.00
2018-08-18T03:31:11.401Z,20.00
2018-08-18T03:33:54.414Z,20.20
2018-08-18T03:36:47.842Z,20.20
2018-08-18T03:39:31.379Z,20.30
2018-08-18T03:42:10.623Z,20.40
2018-08-18T03:44:54.754Z,20.50
2018-08-18T03:47:37.485Z,20.40
2018-08-18T03:56:36.757Z,20.20
2018-08-18T04:02:21.474Z,20.20
2018-08-18T04:08:07.450Z,20.00
2018-08-18T04:10:48.487Z,20.00
2018-08-18T04:13:36.616Z,20.10
2018-08-18T04:16:18.012Z,20.20
2018-08-18T04:19:02.482Z,20.20
2018-08-18T04:21:39.863Z,20.10
2018-08-18T04:24:20.221Z,19.90
2018-08-18T04:30:06.520Z,19.80
2018-08-18T04:39:12.070Z,19.60
2018-08-18T04:42:02.291Z,19.60
2018-08-18T04:44:52.680Z,19.60
2018-08-18T04:51:20.649Z,19.70
2018-08-18T04:53:57.314Z,19.90
2018-08-18T05:00:21.164Z,20.10
2018-08-18T05:03:14.479Z,20.30
2018-08-18T05:05:51.092Z,20.40
2018-08-18T05:08:42.391Z,20.30
2018-08-18T05:11:22.061Z,20.20
2018-08-18T05:14:00.389Z,20.30
2018-08-18T05:16:42.908Z,20.30
2018-08-18T05:19:28.158Z,20.30
2018-08-18T05:22:04.893Z,20.20
2018-08-18T05:24:45.419Z,20.10
2018-08-18T05:27:32.516Z,20.00
2018-08-18T05:30:11.508Z,19.90
2018-08-18T05:32:40.618Z,20.00
2018-08-18T05:35:10.618Z,20.20
2018-08-18T05:37:39.631Z,20.30
2018-08-18T05:40:10.669Z,20.20
2018-08-18T05:42:40.109Z,20.30
2018-08-18T05:45:22.605Z,20.50
2018-08-18T05:47:54.280Z,20.70
2018-08-18T05:50:26.609Z,20.80
2018-08-18T05:52:58.877Z,20.90
2018-08-18T05:55:28.572Z,21.00
2018-08-18T05:57:58.527Z,21.00
2018-08-18T06:00:35.096Z,21.00
2018-08-18T06:03:42.712Z,21.00
2018-08-18T06:06:38.831Z,21.00
2018-08-18T06:09:19.741Z,21.10
2018-08-18T06:11:55.622Z,21.10
2018-08-18T06:17:35.685Z,21.00
2018-08-18T06:20:15.448Z,20.90
2018-08-18T06:22:49.391Z,20.90
2018-08-18T06:25:24.059Z,21.00
2018-08-18T06:28:04.739Z,21.00
2018-08-18T06:30:54.951Z,21.30
2018-08-18T06:33:44.591Z,21.40
2018-08-18T06:36:30.838Z,21.60
2018-08-18T06:39:19.376Z,21.60
2018-08-18T06:42:26.812Z,21.70
2018-08-18T06:45:06.818Z,21.60
2018-08-18T06:47:49.639Z,21.40
2018-08-18T06:50:35.206Z,21.40
2018-08-18T06:53:13.673Z,21.40
2018-08-18T06:55:51.989Z,21.60
2018-08-18T07:12:25.170Z,21.90
2018-08-18T07:14:59.760Z,22.40
2018-08-18T07:17:34.578Z,22.60
2018-08-18T07:20:03.758Z,22.90
2018-08-18T07:22:35.604Z,23.20
2018-08-18T07:25:05.728Z,23.60
2018-08-18T07:27:38.329Z,23.60
2018-08-18T07:30:12.765Z,23.80
2018-08-18T07:32:45.434Z,24.40
2018-08-18T07:35:15.865Z,24.70
2018-08-18T07:37:48.949Z,24.80
2018-08-18T07:41:29.816Z,25.40
2018-08-18T07:49:47.766Z,28.50
2018-08-18T07:55:47.499Z,28.40
2018-08-18T08:01:35.482Z,26.70
2018-08-18T08:04:15.321Z,26.50
2018-08-18T08:07:07.889Z,26.60
2018-08-18T08:12:50.396Z,26.20
2018-08-18T08:15:41.404Z,26.20
2018-08-18T08:18:26.252Z,25.90
2018-08-18T08:21:00.187Z,25.70
2018-08-18T08:23:30.986Z,25.40
2018-08-18T08:26:01.495Z,25.00
2018-08-18T08:28:34.400Z,24.90
2018-08-18T08:31:05.342Z,25.00
2018-08-18T08:33:38.145Z,25.20
2018-08-18T08:36:12.041Z,25.40
2018-08-18T08:38:58.014Z,25.80
2018-08-18T08:41:28.368Z,26.00
2018-08-18T08:57:57.742Z,26.00
2018-08-18T09:00:27.968Z,27.20
2018-08-18T09:02:58.205Z,27.50
2018-08-18T09:05:31.071Z,27.90
2018-08-18T09:08:00.909Z,28.70
2018-08-18T09:10:35.831Z,29.80
2018-08-18T09:13:05.004Z,30.90
2018-08-18T09:15:34.518Z,32.10
2018-08-18T09:18:03.569Z,32.90
2018-08-18T09:23:54.156Z,32.60
2018-08-18T09:26:42.018Z,33.10
2018-08-18T09:29:23.810Z,34.10
2018-08-18T09:31:59.703Z,34.40
2018-08-18T09:34:45.468Z,34.20
2018-08-18T09:37:26.158Z,33.70
2018-08-18T09:39:57.087Z,33.50
2018-08-18T09:42:32.848Z,32.90
2018-08-18T09:57:20.260Z,28.50
2018-08-18T21:21:30.345Z,28.00
2018-08-18T21:24:00.761Z,23.20
2018-08-18T21:26:30.131Z,23.00
2018-08-18T21:29:01.107Z,23.00
2018-08-18T21:31:36.103Z,23.10
2018-08-18T21:34:08.903Z,23.10
2018-08-18T21:36:38.824Z,23.10
2018-08-18T21:39:14.679Z,23.20
2018-08-18T21:41:47.871Z,23.20
2018-08-18T21:44:22.095Z,23.20
2018-08-18T21:47:00.104Z,23.20
2018-08-18T21:49:48.754Z,23.20
2018-08-18T21:55:39.172Z,22.90
2018-08-18T21:58:16.185Z,22.80
2018-08-18T22:00:54.630Z,22.70
2018-08-18T22:06:26.441Z,22.70
2018-08-18T22:09:18.185Z,22.80
2018-08-18T22:12:14.133Z,22.70
2018-08-18T22:17:52.154Z,22.50
2018-08-18T22:20:31.386Z,22.60
2018-08-18T22:23:14.468Z,22.70
2018-08-18T22:28:43.891Z,22.80
2018-08-18T22:34:06.804Z,22.70
2018-08-18T22:36:40.779Z,22.80
2018-08-18T22:39:17.932Z,22.70
2018-08-18T22:41:56.662Z,22.70
2018-08-18T22:44:34.724Z,22.70
2018-08-18T22:50:27.023Z,22.70
2018-08-18T22:56:09.113Z,22.60
2018-08-18T22:59:09.030Z,22.50
2018-08-18T23:02:03.426Z,22.50
2018-08-18T23:07:34.733Z,22.40
2018-08-18T23:10:09.621Z,22.30
2018-08-18T23:15:27.671Z,22.30
2018-08-18T23:18:06.006Z,22.30
2018-08-18T23:20:47.936Z,22.20
2018-08-18T23:23:46.657Z,22.20
2018-08-18T23:26:21.046Z,22.10
2018-08-18T23:31:49.064Z,22.00
2018-08-18T23:37:20.622Z,21.90
2018-08-18T23:39:55.973Z,21.90
2018-08-18T23:42:26.854Z,21.90
2018-08-18T23:45:02.467Z,21.90
2018-08-18T23:47:46.809Z,22.00
2018-08-18T23:50:24.656Z,22.10
2018-08-18T23:53:09.374Z,22.20
2018-08-18T23:56:01.454Z,22.20
2018-08-18T23:58:38.330Z,22.10
